sensor_id;sensor_type;location;lat;lon;timestamp;P1;durP1;ratioP1;P2;durP2;ratioP2
31308;SDS011;17936;52.446;10.840;2022-08-16T00:01:56;19.25;;;14.70;;
31308;SDS011;17936;52.446;10.840;2022-08-16T00:04:22;18.20;;;15.07;;
31308;SDS011;17936;52.446;10.840;2022-08-16T00:06:47;17.45;;;14.20;;
31308;SDS011;17936;52.446;10.840;2022-08-16T00:09:13;21.00;;;13.82;;
31308;SDS011;17936;52.446;10.840;2022-08-16T00:11:40;23.17;;;13.88;;
31308;SDS011;17936;52.446;10.840;2022-08-16T00:14:09;18.15;;;14.50;;
31308;SDS011;17936;52.446;10.840;2022-08-16T00:16:37;19.20;;;13.95;;
31308;SDS011;17936;52.446;10.840;2022-08-16T00:19:03;19.67;;;13.98;;
31308;SDS011;17936;52.446;10.840;2022-08-16T00:21:29;22.73;;;14.98;;
31308;SDS011;17936;52.446;10.840;2022-08-16T00:23:56;18.38;;;14.57;;
31308;SDS011;17936;52.446;10.840;2022-08-16T00:26:22;18.85;;;15.00;;
31308;SDS011;17936;52.446;10.840;2022-08-16T00:28:48;21.20;;;14.70;;
31308;SDS011;17936;52.446;10.840;2022-08-16T00:31:13;19.92;;;13.93;;
31308;SDS011;17936;52.446;10.840;2022-08-16T00:33:39;22.70;;;14.13;;
31308;SDS011;17936;52.446;10.840;2022-08-16T00:36:05;16.98;;;14.13;;
31308;SDS011;17936;52.446;10.840;2022-08-16T00:38:30;18.08;;;14.63;;
31308;SDS011;17936;52.446;10.840;2022-08-16T00:40:56;21.58;;;15.00;;
31308;SDS011;17936;52.446;10.840;2022-08-16T00:43:27;19.33;;;14.90;;
31308;SDS011;17936;52.446;10.840;2022-08-16T00:48:51;18.75;;;14.63;;
31308;SDS011;17936;52.446;10.840;2022-08-16T00:51:18;16.98;;;13.98;;
31308;SDS011;17936;52.446;10.840;2022-08-16T00:53:46;18.15;;;14.80;;
31308;SDS011;17936;52.446;10.840;2022-08-16T00:56:16;19.65;;;16.33;;
31308;SDS011;17936;52.446;10.840;2022-08-16T00:58:46;22.52;;;15.05;;
31308;SDS011;17936;52.446;10.840;2022-08-16T01:01:12;24.13;;;15.93;;
31308;SDS011;17936;52.446;10.840;2022-08-16T01:03:40;20.92;;;16.13;;
31308;SDS011;17936;52.446;10.840;2022-08-16T01:06:08;21.48;;;15.65;;
31308;SDS011;17936;52.446;10.840;2022-08-16T01:08:35;18.83;;;15.30;;
31308;SDS011;17936;52.446;10.840;2022-08-16T01:11:03;18.70;;;15.73;;
31308;SDS011;17936;52.446;10.840;2022-08-16T01:13:31;18.90;;;16.30;;
31308;SDS011;17936;52.446;10.840;2022-08-16T01:16:00;18.33;;;14.10;;
31308;SDS011;17936;52.446;10.840;2022-08-16T01:18:30;19.75;;;15.27;;
31308;SDS011;17936;52.446;10.840;2022-08-16T01:21:10;22.55;;;15.55;;
31308;SDS011;17936;52.446;10.840;2022-08-16T01:26:22;19.27;;;15.38;;
31308;SDS011;17936;52.446;10.840;2022-08-16T01:28:50;18.65;;;15.32;;
31308;SDS011;17936;52.446;10.840;2022-08-16T01:31:16;20.10;;;14.77;;
31308;SDS011;17936;52.446;10.840;2022-08-16T01:33:44;20.92;;;15.48;;
31308;SDS011;17936;52.446;10.840;2022-08-16T01:36:09;17.63;;;13.95;;
31308;SDS011;17936;52.446;10.840;2022-08-16T01:38:36;19.40;;;14.05;;
31308;SDS011;17936;52.446;10.840;2022-08-16T01:41:11;22.77;;;14.77;;
31308;SDS011;17936;52.446;10.840;2022-08-16T01:43:43;17.40;;;14.27;;
31308;SDS011;17936;52.446;10.840;2022-08-16T01:46:20;19.15;;;13.80;;
31308;SDS011;17936;52.446;10.840;2022-08-16T01:49:08;17.80;;;12.93;;
31308;SDS011;17936;52.446;10.840;2022-08-16T01:51:43;24.30;;;15.48;;
31308;SDS011;17936;52.446;10.840;2022-08-16T01:54:11;19.15;;;13.65;;
31308;SDS011;17936;52.446;10.840;2022-08-16T01:56:37;22.77;;;15.88;;
31308;SDS011;17936;52.446;10.840;2022-08-16T01:59:04;20.38;;;14.52;;
31308;SDS011;17936;52.446;10.840;2022-08-16T02:01:30;19.25;;;14.65;;
31308;SDS011;17936;52.446;10.840;2022-08-16T02:03:57;20.30;;;14.48;;
31308;SDS011;17936;52.446;10.840;2022-08-16T02:06:23;23.10;;;14.20;;
31308;SDS011;17936;52.446;10.840;2022-08-16T02:08:50;19.98;;;14.55;;
31308;SDS011;17936;52.446;10.840;2022-08-16T02:11:15;18.10;;;14.73;;
31308;SDS011;17936;52.446;10.840;2022-08-16T02:13:41;17.98;;;13.77;;
31308;SDS011;17936;52.446;10.840;2022-08-16T02:16:07;18.10;;;13.93;;
31308;SDS011;17936;52.446;10.840;2022-08-16T02:18:33;17.33;;;13.43;;
31308;SDS011;17936;52.446;10.840;2022-08-16T02:20:58;25.30;;;12.50;;
31308;SDS011;17936;52.446;10.840;2022-08-16T02:23:25;17.92;;;12.93;;
31308;SDS011;17936;52.446;10.840;2022-08-16T02:25:51;16.40;;;13.23;;
31308;SDS011;17936;52.446;10.840;2022-08-16T02:28:17;21.52;;;14.30;;
31308;SDS011;17936;52.446;10.840;2022-08-16T02:30:44;17.85;;;13.80;;
31308;SDS011;17936;52.446;10.840;2022-08-16T02:33:09;23.33;;;13.32;;
31308;SDS011;17936;52.446;10.840;2022-08-16T02:35:36;17.50;;;13.02;;
31308;SDS011;17936;52.446;10.840;2022-08-16T02:38:01;17.13;;;12.60;;
31308;SDS011;17936;52.446;10.840;2022-08-16T02:40:27;19.33;;;12.45;;
31308;SDS011;17936;52.446;10.840;2022-08-16T02:42:53;22.73;;;13.13;;
31308;SDS011;17936;52.446;10.840;2022-08-16T02:45:20;17.92;;;13.48;;
31308;SDS011;17936;52.446;10.840;2022-08-16T02:47:48;21.10;;;13.10;;
31308;SDS011;17936;52.446;10.840;2022-08-16T02:50:14;15.48;;;12.40;;
31308;SDS011;17936;52.446;10.840;2022-08-16T02:52:40;15.68;;;12.23;;
31308;SDS011;17936;52.446;10.840;2022-08-16T02:55:07;14.30;;;12.15;;
31308;SDS011;17936;52.446;10.840;2022-08-16T02:57:33;16.50;;;12.40;;
31308;SDS011;17936;52.446;10.840;2022-08-16T02:59:59;19.48;;;13.02;;
31308;SDS011;17936;52.446;10.840;2022-08-16T03:02:27;17.05;;;11.73;;
31308;SDS011;17936;52.446;10.840;2022-08-16T03:04:52;18.02;;;12.40;;
31308;SDS011;17936;52.446;10.840;2022-08-16T03:07:17;19.52;;;11.40;;
31308;SDS011;17936;52.446;10.840;2022-08-16T03:09:44;16.92;;;11.63;;
31308;SDS011;17936;52.446;10.840;2022-08-16T03:12:10;17.05;;;12.35;;
31308;SDS011;17936;52.446;10.840;2022-08-16T03:14:36;17.77;;;12.43;;
31308;SDS011;17936;52.446;10.840;2022-08-16T03:17:01;19.40;;;11.85;;
31308;SDS011;17936;52.446;10.840;2022-08-16T03:19:28;19.10;;;11.95;;
31308;SDS011;17936;52.446;10.840;2022-08-16T03:21:55;17.85;;;12.48;;
31308;SDS011;17936;52.446;10.840;2022-08-16T03:24:21;16.23;;;12.90;;
31308;SDS011;17936;52.446;10.840;2022-08-16T03:26:46;21.13;;;12.40;;
31308;SDS011;17936;52.446;10.840;2022-08-16T03:29:12;14.68;;;12.57;;
31308;SDS011;17936;52.446;10.840;2022-08-16T03:31:38;18.88;;;11.80;;
31308;SDS011;17936;52.446;10.840;2022-08-16T03:34:03;15.18;;;11.52;;
31308;SDS011;17936;52.446;10.840;2022-08-16T03:36:29;19.38;;;13.10;;
31308;SDS011;17936;52.446;10.840;2022-08-16T03:38:54;15.18;;;11.55;;
31308;SDS011;17936;52.446;10.840;2022-08-16T03:41:20;17.17;;;11.63;;
31308;SDS011;17936;52.446;10.840;2022-08-16T03:43:47;17.13;;;12.68;;
31308;SDS011;17936;52.446;10.840;2022-08-16T03:46:13;14.95;;;11.55;;
31308;SDS011;17936;52.446;10.840;2022-08-16T03:48:39;17.23;;;12.57;;
31308;SDS011;17936;52.446;10.840;2022-08-16T03:51:07;16.02;;;11.98;;
31308;SDS011;17936;52.446;10.840;2022-08-16T03:53:35;18.95;;;13.02;;
31308;SDS011;17936;52.446;10.840;2022-08-16T03:56:01;17.20;;;13.18;;
31308;SDS011;17936;52.446;10.840;2022-08-16T03:58:27;20.85;;;13.18;;
31308;SDS011;17936;52.446;10.840;2022-08-16T04:00:53;18.30;;;12.52;;
31308;SDS011;17936;52.446;10.840;2022-08-16T04:03:19;19.67;;;12.82;;
31308;SDS011;17936;52.446;10.840;2022-08-16T04:05:45;15.50;;;12.50;;
31308;SDS011;17936;52.446;10.840;2022-08-16T04:08:12;18.98;;;14.00;;
31308;SDS011;17936;52.446;10.840;2022-08-16T04:10:38;16.08;;;12.68;;
31308;SDS011;17936;52.446;10.840;2022-08-16T04:13:04;20.50;;;13.48;;
31308;SDS011;17936;52.446;10.840;2022-08-16T04:15:30;17.35;;;13.07;;
31308;SDS011;17936;52.446;10.840;2022-08-16T04:17:58;16.00;;;13.00;;
31308;SDS011;17936;52.446;10.840;2022-08-16T04:20:28;17.88;;;12.35;;
31308;SDS011;17936;52.446;10.840;2022-08-16T04:22:55;19.17;;;12.43;;
31308;SDS011;17936;52.446;10.840;2022-08-16T04:25:20;19.25;;;12.60;;
31308;SDS011;17936;52.446;10.840;2022-08-16T04:27:47;15.88;;;12.65;;
31308;SDS011;17936;52.446;10.840;2022-08-16T04:30:16;19.48;;;12.38;;
31308;SDS011;17936;52.446;10.840;2022-08-16T04:32:43;16.02;;;11.82;;
31308;SDS011;17936;52.446;10.840;2022-08-16T04:35:11;21.50;;;12.40;;
31308;SDS011;17936;52.446;10.840;2022-08-16T04:37:40;21.15;;;11.30;;
31308;SDS011;17936;52.446;10.840;2022-08-16T04:40:06;16.02;;;11.32;;
31308;SDS011;17936;52.446;10.840;2022-08-16T04:42:34;18.05;;;11.93;;
31308;SDS011;17936;52.446;10.840;2022-08-16T04:45:02;16.40;;;11.65;;
31308;SDS011;17936;52.446;10.840;2022-08-16T04:47:28;21.83;;;11.60;;
31308;SDS011;17936;52.446;10.840;2022-08-16T04:49:55;19.27;;;11.75;;
31308;SDS011;17936;52.446;10.840;2022-08-16T04:52:21;16.73;;;11.07;;
31308;SDS011;17936;52.446;10.840;2022-08-16T04:54:47;19.92;;;11.45;;
31308;SDS011;17936;52.446;10.840;2022-08-16T04:57:12;17.35;;;11.85;;
31308;SDS011;17936;52.446;10.840;2022-08-16T04:59:45;16.13;;;11.57;;
31308;SDS011;17936;52.446;10.840;2022-08-16T05:02:10;16.25;;;11.57;;
31308;SDS011;17936;52.446;10.840;2022-08-16T05:04:36;16.73;;;11.07;;
31308;SDS011;17936;52.446;10.840;2022-08-16T05:07:04;16.85;;;11.18;;
31308;SDS011;17936;52.446;10.840;2022-08-16T05:09:29;18.15;;;11.20;;
31308;SDS011;17936;52.446;10.840;2022-08-16T05:11:55;16.30;;;10.77;;
31308;SDS011;17936;52.446;10.840;2022-08-16T05:14:21;16.30;;;10.48;;
31308;SDS011;17936;52.446;10.840;2022-08-16T05:16:46;13.45;;;10.40;;
31308;SDS011;17936;52.446;10.840;2022-08-16T05:19:12;19.90;;;10.68;;
31308;SDS011;17936;52.446;10.840;2022-08-16T05:21:38;16.50;;;10.82;;
31308;SDS011;17936;52.446;10.840;2022-08-16T05:24:04;14.40;;;9.77;;
31308;SDS011;17936;52.446;10.840;2022-08-16T05:26:30;17.10;;;10.30;;
31308;SDS011;17936;52.446;10.840;2022-08-16T05:28:57;16.13;;;10.23;;
31308;SDS011;17936;52.446;10.840;2022-08-16T05:31:24;19.02;;;9.85;;
31308;SDS011;17936;52.446;10.840;2022-08-16T05:33:51;15.07;;;9.25;;
31308;SDS011;17936;52.446;10.840;2022-08-16T05:36:16;17.13;;;8.75;;
31308;SDS011;17936;52.446;10.840;2022-08-16T05:38:42;11.95;;;9.38;;
31308;SDS011;17936;52.446;10.840;2022-08-16T05:41:07;11.95;;;8.38;;
31308;SDS011;17936;52.446;10.840;2022-08-16T05:43:33;15.30;;;7.97;;
31308;SDS011;17936;52.446;10.840;2022-08-16T05:45:59;12.20;;;7.45;;
31308;SDS011;17936;52.446;10.840;2022-08-16T05:48:24;11.20;;;7.63;;
31308;SDS011;17936;52.446;10.840;2022-08-16T05:50:50;11.45;;;7.65;;
31308;SDS011;17936;52.446;10.840;2022-08-16T05:53:16;8.85;;;6.93;;
31308;SDS011;17936;52.446;10.840;2022-08-16T05:55:42;15.02;;;7.20;;
31308;SDS011;17936;52.446;10.840;2022-08-16T05:58:08;9.15;;;6.85;;
31308;SDS011;17936;52.446;10.840;2022-08-16T06:00:34;11.18;;;7.53;;
31308;SDS011;17936;52.446;10.840;2022-08-16T06:03:00;9.75;;;6.28;;
31308;SDS011;17936;52.446;10.840;2022-08-16T06:05:25;11.68;;;7.18;;
31308;SDS011;17936;52.446;10.840;2022-08-16T06:07:51;9.40;;;6.95;;
31308;SDS011;17936;52.446;10.840;2022-08-16T06:10:17;11.10;;;6.10;;
31308;SDS011;17936;52.446;10.840;2022-08-16T06:12:43;10.95;;;6.63;;
31308;SDS011;17936;52.446;10.840;2022-08-16T06:15:12;7.93;;;6.22;;
31308;SDS011;17936;52.446;10.840;2022-08-16T06:17:40;6.82;;;5.20;;
31308;SDS011;17936;52.446;10.840;2022-08-16T06:20:06;9.68;;;6.03;;
31308;SDS011;17936;52.446;10.840;2022-08-16T06:22:34;10.10;;;5.78;;
31308;SDS011;17936;52.446;10.840;2022-08-16T06:25:01;7.07;;;5.07;;
31308;SDS011;17936;52.446;10.840;2022-08-16T06:27:27;10.60;;;5.75;;
31308;SDS011;17936;52.446;10.840;2022-08-16T06:29:52;6.82;;;5.10;;
31308;SDS011;17936;52.446;10.840;2022-08-16T06:32:18;15.75;;;5.60;;
31308;SDS011;17936;52.446;10.840;2022-08-16T06:34:44;8.07;;;5.30;;
31308;SDS011;17936;52.446;10.840;2022-08-16T06:37:09;8.10;;;5.53;;
31308;SDS011;17936;52.446;10.840;2022-08-16T06:39:35;10.95;;;5.03;;
31308;SDS011;17936;52.446;10.840;2022-08-16T06:42:01;7.82;;;5.55;;
31308;SDS011;17936;52.446;10.840;2022-08-16T06:44:27;10.48;;;5.78;;
31308;SDS011;17936;52.446;10.840;2022-08-16T06:46:52;9.48;;;5.47;;
31308;SDS011;17936;52.446;10.840;2022-08-16T06:49:18;5.95;;;4.38;;
31308;SDS011;17936;52.446;10.840;2022-08-16T06:51:43;7.93;;;4.82;;
31308;SDS011;17936;52.446;10.840;2022-08-16T06:54:09;13.38;;;5.10;;
31308;SDS011;17936;52.446;10.840;2022-08-16T06:56:35;9.18;;;5.03;;
31308;SDS011;17936;52.446;10.840;2022-08-16T06:59:00;8.10;;;4.72;;
31308;SDS011;17936;52.446;10.840;2022-08-16T07:01:26;8.77;;;5.00;;
31308;SDS011;17936;52.446;10.840;2022-08-16T07:03:52;9.75;;;4.55;;
31308;SDS011;17936;52.446;10.840;2022-08-16T07:06:18;7.72;;;4.97;;
31308;SDS011;17936;52.446;10.840;2022-08-16T07:08:44;9.20;;;4.68;;
31308;SDS011;17936;52.446;10.840;2022-08-16T07:11:11;8.25;;;4.55;;
31308;SDS011;17936;52.446;10.840;2022-08-16T07:13:37;8.73;;;4.20;;
31308;SDS011;17936;52.446;10.840;2022-08-16T07:16:04;8.35;;;4.85;;
31308;SDS011;17936;52.446;10.840;2022-08-16T07:18:31;7.38;;;4.40;;
31308;SDS011;17936;52.446;10.840;2022-08-16T07:20:57;8.15;;;4.60;;
31308;SDS011;17936;52.446;10.840;2022-08-16T07:23:23;6.93;;;4.07;;
31308;SDS011;17936;52.446;10.840;2022-08-16T07:25:50;5.38;;;4.22;;
31308;SDS011;17936;52.446;10.840;2022-08-16T07:28:17;7.72;;;4.32;;
31308;SDS011;17936;52.446;10.840;2022-08-16T07:30:44;7.80;;;4.07;;
31308;SDS011;17936;52.446;10.840;2022-08-16T07:33:10;9.75;;;4.78;;
31308;SDS011;17936;52.446;10.840;2022-08-16T07:35:38;10.80;;;4.88;;
31308;SDS011;17936;52.446;10.840;2022-08-16T07:38:05;7.90;;;4.72;;
31308;SDS011;17936;52.446;10.840;2022-08-16T07:40:31;8.13;;;4.97;;
31308;SDS011;17936;52.446;10.840;2022-08-16T07:42:58;10.88;;;5.40;;
31308;SDS011;17936;52.446;10.840;2022-08-16T07:45:23;6.13;;;4.45;;
31308;SDS011;17936;52.446;10.840;2022-08-16T07:47:49;8.23;;;5.25;;
31308;SDS011;17936;52.446;10.840;2022-08-16T07:50:15;6.43;;;4.85;;
31308;SDS011;17936;52.446;10.840;2022-08-16T07:52:41;7.82;;;5.25;;
31308;SDS011;17936;52.446;10.840;2022-08-16T07:55:08;13.68;;;5.25;;
31308;SDS011;17936;52.446;10.840;2022-08-16T07:57:35;11.27;;;5.03;;
31308;SDS011;17936;52.446;10.840;2022-08-16T08:00:00;8.82;;;4.57;;
31308;SDS011;17936;52.446;10.840;2022-08-16T08:02:27;10.93;;;4.82;;
31308;SDS011;17936;52.446;10.840;2022-08-16T08:04:53;9.63;;;5.05;;
31308;SDS011;17936;52.446;10.840;2022-08-16T08:07:19;8.57;;;4.45;;
31308;SDS011;17936;52.446;10.840;2022-08-16T08:09:44;9.30;;;4.63;;
31308;SDS011;17936;52.446;10.840;2022-08-16T08:12:10;7.43;;;4.65;;
31308;SDS011;17936;52.446;10.840;2022-08-16T08:14:36;9.85;;;4.30;;
31308;SDS011;17936;52.446;10.840;2022-08-16T08:17:02;6.15;;;3.85;;
31308;SDS011;17936;52.446;10.840;2022-08-16T08:19:31;5.53;;;3.78;;
31308;SDS011;17936;52.446;10.840;2022-08-16T08:21:58;7.75;;;4.05;;
31308;SDS011;17936;52.446;10.840;2022-08-16T08:24:24;7.75;;;4.10;;
31308;SDS011;17936;52.446;10.840;2022-08-16T08:26:49;7.47;;;3.55;;
31308;SDS011;17936;52.446;10.840;2022-08-16T08:29:15;8.80;;;4.15;;
31308;SDS011;17936;52.446;10.840;2022-08-16T08:31:41;5.80;;;3.65;;
31308;SDS011;17936;52.446;10.840;2022-08-16T08:34:07;5.22;;;2.92;;
31308;SDS011;17936;52.446;10.840;2022-08-16T08:36:33;4.65;;;3.05;;
31308;SDS011;17936;52.446;10.840;2022-08-16T08:39:00;7.20;;;3.25;;
31308;SDS011;17936;52.446;10.840;2022-08-16T08:41:28;5.32;;;2.92;;
31308;SDS011;17936;52.446;10.840;2022-08-16T08:43:54;6.78;;;2.60;;
31308;SDS011;17936;52.446;10.840;2022-08-16T08:46:21;5.65;;;2.97;;
31308;SDS011;17936;52.446;10.840;2022-08-16T08:48:48;9.25;;;3.00;;
31308;SDS011;17936;52.446;10.840;2022-08-16T08:51:15;5.13;;;3.05;;
31308;SDS011;17936;52.446;10.840;2022-08-16T08:53:42;5.45;;;3.03;;
31308;SDS011;17936;52.446;10.840;2022-08-16T08:56:08;4.10;;;2.78;;
31308;SDS011;17936;52.446;10.840;2022-08-16T08:58:34;5.85;;;3.15;;
31308;SDS011;17936;52.446;10.840;2022-08-16T09:01:00;4.38;;;3.20;;
31308;SDS011;17936;52.446;10.840;2022-08-16T09:03:26;8.10;;;3.92;;
31308;SDS011;17936;52.446;10.840;2022-08-16T09:05:52;11.13;;;4.03;;
31308;SDS011;17936;52.446;10.840;2022-08-16T09:08:18;7.82;;;3.67;;
31308;SDS011;17936;52.446;10.840;2022-08-16T09:10:43;5.07;;;3.50;;
31308;SDS011;17936;52.446;10.840;2022-08-16T09:13:09;7.97;;;3.83;;
31308;SDS011;17936;52.446;10.840;2022-08-16T09:15:35;8.43;;;3.65;;
31308;SDS011;17936;52.446;10.840;2022-08-16T09:18:01;5.95;;;3.35;;
31308;SDS011;17936;52.446;10.840;2022-08-16T09:20:29;10.07;;;3.40;;
31308;SDS011;17936;52.446;10.840;2022-08-16T09:22:56;5.28;;;3.00;;
31308;SDS011;17936;52.446;10.840;2022-08-16T09:25:23;6.07;;;3.80;;
31308;SDS011;17936;52.446;10.840;2022-08-16T09:27:51;6.80;;;3.58;;
31308;SDS011;17936;52.446;10.840;2022-08-16T09:30:17;4.90;;;3.53;;
31308;SDS011;17936;52.446;10.840;2022-08-16T09:32:42;7.07;;;3.40;;
31308;SDS011;17936;52.446;10.840;2022-08-16T09:35:08;4.55;;;3.30;;
31308;SDS011;17936;52.446;10.840;2022-08-16T09:37:34;5.50;;;2.72;;
31308;SDS011;17936;52.446;10.840;2022-08-16T09:39:59;7.07;;;3.20;;
31308;SDS011;17936;52.446;10.840;2022-08-16T09:42:27;6.90;;;3.03;;
31308;SDS011;17936;52.446;10.840;2022-08-16T09:44:53;6.95;;;2.60;;
31308;SDS011;17936;52.446;10.840;2022-08-16T09:47:18;6.88;;;2.53;;
31308;SDS011;17936;52.446;10.840;2022-08-16T09:49:44;4.20;;;2.40;;
31308;SDS011;17936;52.446;10.840;2022-08-16T09:52:10;3.90;;;2.40;;
31308;SDS011;17936;52.446;10.840;2022-08-16T09:54:36;4.28;;;2.20;;
31308;SDS011;17936;52.446;10.840;2022-08-16T09:57:04;6.75;;;2.78;;
31308;SDS011;17936;52.446;10.840;2022-08-16T09:59:30;6.07;;;2.75;;
31308;SDS011;17936;52.446;10.840;2022-08-16T10:01:57;7.28;;;2.40;;
31308;SDS011;17936;52.446;10.840;2022-08-16T10:04:22;3.63;;;2.38;;
31308;SDS011;17936;52.446;10.840;2022-08-16T10:06:51;5.93;;;2.80;;
31308;SDS011;17936;52.446;10.840;2022-08-16T10:09:18;5.55;;;2.30;;
31308;SDS011;17936;52.446;10.840;2022-08-16T10:11:43;5.53;;;2.42;;
31308;SDS011;17936;52.446;10.840;2022-08-16T10:14:28;5.97;;;2.65;;
31308;SDS011;17936;52.446;10.840;2022-08-16T10:16:55;6.60;;;2.30;;
31308;SDS011;17936;52.446;10.840;2022-08-16T10:19:22;5.00;;;2.80;;
31308;SDS011;17936;52.446;10.840;2022-08-16T10:21:48;4.75;;;2.50;;
31308;SDS011;17936;52.446;10.840;2022-08-16T10:24:14;5.43;;;2.42;;
31308;SDS011;17936;52.446;10.840;2022-08-16T10:26:40;6.68;;;2.38;;
31308;SDS011;17936;52.446;10.840;2022-08-16T10:29:05;3.97;;;2.30;;
31308;SDS011;17936;52.446;10.840;2022-08-16T10:31:31;8.18;;;2.63;;
31308;SDS011;17936;52.446;10.840;2022-08-16T10:33:58;4.38;;;2.53;;
31308;SDS011;17936;52.446;10.840;2022-08-16T10:36:25;3.67;;;2.38;;
31308;SDS011;17936;52.446;10.840;2022-08-16T10:38:51;5.40;;;2.63;;
31308;SDS011;17936;52.446;10.840;2022-08-16T10:41:17;5.75;;;2.50;;
31308;SDS011;17936;52.446;10.840;2022-08-16T10:43:43;4.80;;;2.47;;
31308;SDS011;17936;52.446;10.840;2022-08-16T10:46:10;8.55;;;2.20;;
31308;SDS011;17936;52.446;10.840;2022-08-16T10:48:37;7.32;;;2.58;;
31308;SDS011;17936;52.446;10.840;2022-08-16T10:51:03;7.03;;;2.28;;
31308;SDS011;17936;52.446;10.840;2022-08-16T10:53:30;4.53;;;2.20;;
31308;SDS011;17936;52.446;10.840;2022-08-16T10:55:56;3.97;;;2.10;;
31308;SDS011;17936;52.446;10.840;2022-08-16T10:58:24;4.60;;;2.10;;
31308;SDS011;17936;52.446;10.840;2022-08-16T11:00:50;4.20;;;2.00;;
31308;SDS011;17936;52.446;10.840;2022-08-16T11:03:15;5.00;;;2.28;;
31308;SDS011;17936;52.446;10.840;2022-08-16T11:05:41;3.58;;;2.30;;
31308;SDS011;17936;52.446;10.840;2022-08-16T11:08:08;4.95;;;2.45;;
31308;SDS011;17936;52.446;10.840;2022-08-16T11:10:37;4.50;;;2.17;;
31308;SDS011;17936;52.446;10.840;2022-08-16T11:13:05;6.88;;;2.40;;
31308;SDS011;17936;52.446;10.840;2022-08-16T11:15:32;4.00;;;2.05;;
31308;SDS011;17936;52.446;10.840;2022-08-16T11:17:59;5.45;;;2.40;;
31308;SDS011;17936;52.446;10.840;2022-08-16T11:20:25;4.60;;;2.10;;
31308;SDS011;17936;52.446;10.840;2022-08-16T11:22:52;8.13;;;2.25;;
31308;SDS011;17936;52.446;10.840;2022-08-16T11:25:20;7.05;;;2.30;;
31308;SDS011;17936;52.446;10.840;2022-08-16T11:27:48;6.15;;;2.42;;
31308;SDS011;17936;52.446;10.840;2022-08-16T11:30:14;5.85;;;2.50;;
31308;SDS011;17936;52.446;10.840;2022-08-16T11:32:41;6.88;;;2.28;;
31308;SDS011;17936;52.446;10.840;2022-08-16T11:35:13;7.90;;;2.40;;
31308;SDS011;17936;52.446;10.840;2022-08-16T11:37:48;3.10;;;1.90;;
31308;SDS011;17936;52.446;10.840;2022-08-16T11:40:16;8.02;;;2.58;;
31308;SDS011;17936;52.446;10.840;2022-08-16T11:42:42;5.47;;;2.25;;
31308;SDS011;17936;52.446;10.840;2022-08-16T11:45:08;10.88;;;2.15;;
31308;SDS011;17936;52.446;10.840;2022-08-16T11:47:35;7.32;;;2.58;;
31308;SDS011;17936;52.446;10.840;2022-08-16T11:50:01;4.75;;;2.50;;
31308;SDS011;17936;52.446;10.840;2022-08-16T11:52:31;7.72;;;2.15;;
31308;SDS011;17936;52.446;10.840;2022-08-16T11:54:56;4.22;;;2.33;;
31308;SDS011;17936;52.446;10.840;2022-08-16T11:57:22;6.65;;;2.45;;
31308;SDS011;17936;52.446;10.840;2022-08-16T11:59:47;3.50;;;2.20;;
31308;SDS011;17936;52.446;10.840;2022-08-16T12:02:13;7.43;;;2.33;;
31308;SDS011;17936;52.446;10.840;2022-08-16T12:04:38;4.10;;;2.08;;
31308;SDS011;17936;52.446;10.840;2022-08-16T12:07:04;3.80;;;2.05;;
31308;SDS011;17936;52.446;10.840;2022-08-16T12:09:32;5.13;;;2.30;;
31308;SDS011;17936;52.446;10.840;2022-08-16T12:11:58;3.47;;;2.33;;
31308;SDS011;17936;52.446;10.840;2022-08-16T12:14:24;5.07;;;2.22;;
31308;SDS011;17936;52.446;10.840;2022-08-16T12:16:50;4.68;;;2.38;;
31308;SDS011;17936;52.446;10.840;2022-08-16T12:19:18;6.30;;;2.58;;
31308;SDS011;17936;52.446;10.840;2022-08-16T12:21:44;3.67;;;1.83;;
31308;SDS011;17936;52.446;10.840;2022-08-16T12:24:10;3.38;;;2.13;;
31308;SDS011;17936;52.446;10.840;2022-08-16T12:26:35;2.97;;;2.00;;
31308;SDS011;17936;52.446;10.840;2022-08-16T12:29:01;4.82;;;2.40;;
31308;SDS011;17936;52.446;10.840;2022-08-16T12:31:27;3.10;;;1.85;;
31308;SDS011;17936;52.446;10.840;2022-08-16T12:33:53;2.38;;;1.80;;
31308;SDS011;17936;52.446;10.840;2022-08-16T12:36:18;3.53;;;2.15;;
31308;SDS011;17936;52.446;10.840;2022-08-16T12:38:45;2.33;;;1.83;;
31308;SDS011;17936;52.446;10.840;2022-08-16T12:41:11;4.43;;;2.28;;
31308;SDS011;17936;52.446;10.840;2022-08-16T12:43:37;4.55;;;2.40;;
31308;SDS011;17936;52.446;10.840;2022-08-16T12:46:06;8.18;;;1.98;;
31308;SDS011;17936;52.446;10.840;2022-08-16T12:48:33;3.58;;;2.20;;
31308;SDS011;17936;52.446;10.840;2022-08-16T12:51:19;3.70;;;2.10;;
31308;SDS011;17936;52.446;10.840;2022-08-16T12:53:47;3.35;;;2.30;;
31308;SDS011;17936;52.446;10.840;2022-08-16T12:56:15;4.53;;;2.20;;
31308;SDS011;17936;52.446;10.840;2022-08-16T12:58:41;4.05;;;2.03;;
31308;SDS011;17936;52.446;10.840;2022-08-16T13:01:07;5.05;;;2.08;;
31308;SDS011;17936;52.446;10.840;2022-08-16T13:03:33;3.17;;;2.25;;
31308;SDS011;17936;52.446;10.840;2022-08-16T13:05:59;4.28;;;2.20;;
31308;SDS011;17936;52.446;10.840;2022-08-16T13:08:25;4.43;;;2.40;;
31308;SDS011;17936;52.446;10.840;2022-08-16T13:10:50;3.58;;;2.10;;
31308;SDS011;17936;52.446;10.840;2022-08-16T13:13:20;3.08;;;2.20;;
31308;SDS011;17936;52.446;10.840;2022-08-16T13:15:55;3.72;;;2.08;;
31308;SDS011;17936;52.446;10.840;2022-08-16T13:18:23;5.03;;;2.28;;
31308;SDS011;17936;52.446;10.840;2022-08-16T13:20:51;4.75;;;2.20;;
31308;SDS011;17936;52.446;10.840;2022-08-16T13:23:17;5.88;;;2.60;;
31308;SDS011;17936;52.446;10.840;2022-08-16T13:25:44;8.95;;;2.33;;
31308;SDS011;17936;52.446;10.840;2022-08-16T13:28:11;4.50;;;2.33;;
31308;SDS011;17936;52.446;10.840;2022-08-16T13:30:38;2.92;;;2.10;;
31308;SDS011;17936;52.446;10.840;2022-08-16T13:33:07;6.18;;;2.22;;
31308;SDS011;17936;52.446;10.840;2022-08-16T13:35:35;8.23;;;2.70;;
31308;SDS011;17936;52.446;10.840;2022-08-16T13:38:00;4.82;;;2.10;;
31308;SDS011;17936;52.446;10.840;2022-08-16T13:40:26;5.18;;;2.00;;
31308;SDS011;17936;52.446;10.840;2022-08-16T13:42:52;5.63;;;2.63;;
31308;SDS011;17936;52.446;10.840;2022-08-16T13:45:18;4.32;;;2.10;;
31308;SDS011;17936;52.446;10.840;2022-08-16T13:47:43;4.30;;;2.28;;
31308;SDS011;17936;52.446;10.840;2022-08-16T13:50:09;4.00;;;2.08;;
31308;SDS011;17936;52.446;10.840;2022-08-16T13:52:37;4.65;;;2.15;;
31308;SDS011;17936;52.446;10.840;2022-08-16T13:55:03;4.95;;;2.60;;
31308;SDS011;17936;52.446;10.840;2022-08-16T13:57:29;3.72;;;1.95;;
31308;SDS011;17936;52.446;10.840;2022-08-16T13:59:55;8.88;;;2.30;;
31308;SDS011;17936;52.446;10.840;2022-08-16T14:02:20;6.40;;;2.30;;
31308;SDS011;17936;52.446;10.840;2022-08-16T14:04:46;6.53;;;2.05;;
31308;SDS011;17936;52.446;10.840;2022-08-16T14:07:12;3.90;;;1.90;;
31308;SDS011;17936;52.446;10.840;2022-08-16T14:09:39;9.98;;;2.20;;
31308;SDS011;17936;52.446;10.840;2022-08-16T14:12:12;3.28;;;2.20;;
31308;SDS011;17936;52.446;10.840;2022-08-16T14:14:42;3.47;;;2.40;;
31308;SDS011;17936;52.446;10.840;2022-08-16T14:17:08;2.60;;;1.90;;
31308;SDS011;17936;52.446;10.840;2022-08-16T14:19:33;4.15;;;2.08;;
31308;SDS011;17936;52.446;10.840;2022-08-16T14:21:59;15.38;;;2.15;;
31308;SDS011;17936;52.446;10.840;2022-08-16T14:24:25;5.53;;;2.20;;
31308;SDS011;17936;52.446;10.840;2022-08-16T14:26:51;4.93;;;2.38;;